createdAt,value
2023-05-20T00:00:19.450Z,94506.00
2023-05-20T00:01:19.471Z,94508.00
2023-05-20T00:02:19.533Z,94508.00
2023-05-20T00:03:19.571Z,94510.00
2023-05-20T00:04:19.612Z,94510.00
2023-05-20T00:05:19.576Z,94510.00
2023-05-20T00:06:19.574Z,94510.00
2023-05-20T00:07:19.563Z,94510.00
2023-05-20T00:08:19.600Z,94508.00
2023-05-20T00:09:19.621Z,94508.00
2023-05-20T00:10:19.637Z,94510.00
2023-05-20T00:11:19.647Z,94506.00
2023-05-20T00:12:19.665Z,94504.00
2023-05-20T00:13:19.665Z,94504.00
2023-05-20T00:14:19.690Z,94502.00
2023-05-20T00:15:19.701Z,94502.00
2023-05-20T00:16:19.750Z,94500.00
2023-05-20T00:17:19.750Z,94502.00
2023-05-20T00:18:19.763Z,94500.00
2023-05-20T00:19:19.894Z,94498.00
2023-05-20T00:20:19.802Z,94500.00
2023-05-20T00:21:19.822Z,94498.00
2023-05-20T00:22:19.821Z,94498.00
2023-05-20T00:23:19.864Z,94498.00
2023-05-20T00:24:19.864Z,94496.00
2023-05-20T00:25:19.895Z,94496.00
2023-05-20T00:26:19.919Z,94494.00
2023-05-20T00:27:19.948Z,94494.00
2023-05-20T00:28:19.974Z,94491.00
2023-05-20T00:29:19.976Z,94487.00
2023-05-20T00:30:19.992Z,94485.00
2023-05-20T00:31:19.998Z,94481.00
2023-05-20T00:32:20.052Z,94479.00
2023-05-20T00:33:20.035Z,94475.00
2023-05-20T00:34:20.057Z,94473.00
2023-05-20T00:35:20.085Z,94475.00
2023-05-20T00:36:20.089Z,94471.00
2023-05-20T00:37:20.120Z,94471.00
2023-05-20T00:38:20.124Z,94471.00
2023-05-20T00:39:20.140Z,94465.00
2023-05-20T00:40:20.156Z,94461.00
2023-05-20T00:41:20.182Z,94461.00
2023-05-20T00:42:20.189Z,94461.00
2023-05-20T00:43:20.233Z,94463.00
2023-05-20T00:44:20.226Z,94463.00
2023-05-20T00:45:20.254Z,94467.00
2023-05-20T00:46:20.285Z,94467.00
2023-05-20T00:47:20.285Z,94467.00
2023-05-20T00:48:20.314Z,94467.00
2023-05-20T00:49:20.306Z,94465.00
2023-05-20T00:50:20.348Z,94469.00
2023-05-20T00:51:20.344Z,94469.00
2023-05-20T00:52:20.381Z,94469.00
2023-05-20T00:53:20.384Z,94471.00
2023-05-20T00:54:20.414Z,94473.00
2023-05-20T00:55:20.434Z,94475.00
2023-05-20T00:56:20.458Z,94477.00
2023-05-20T00:57:20.465Z,94479.00
2023-05-20T00:58:20.478Z,94475.00
2023-05-20T00:59:20.502Z,94479.00
2023-05-20T01:00:20.535Z,94479.00
2023-05-20T01:01:20.551Z,94483.00
2023-05-20T01:02:20.625Z,94483.00
2023-05-20T01:03:20.779Z,94483.00
2023-05-20T01:04:20.603Z,94487.00
2023-05-20T01:05:20.616Z,94485.00
2023-05-20T01:06:20.634Z,94483.00
2023-05-20T01:07:20.653Z,94483.00
2023-05-20T01:08:20.670Z,94485.00
2023-05-20T01:09:20.698Z,94485.00
2023-05-20T01:10:20.699Z,94485.00
2023-05-20T01:11:20.726Z,94485.00
2023-05-20T01:12:20.770Z,94485.00
2023-05-20T01:13:20.767Z,94485.00
2023-05-20T01:14:20.805Z,94487.00
2023-05-20T01:15:20.826Z,94487.00
2023-05-20T01:16:20.873Z,94487.00
2023-05-20T01:17:20.876Z,94491.00
2023-05-20T01:18:20.900Z,94492.00
2023-05-20T01:19:20.963Z,94491.00
2023-05-20T01:20:20.931Z,94492.00
2023-05-20T01:21:20.953Z,94492.00
2023-05-20T01:22:20.979Z,94491.00
2023-05-20T01:23:20.993Z,94492.00
2023-05-20T01:24:21.025Z,94492.00
2023-05-20T01:25:21.039Z,94487.00
2023-05-20T01:26:21.059Z,94489.00
2023-05-20T01:27:21.078Z,94487.00
2023-05-20T01:28:21.115Z,94489.00
2023-05-20T01:29:21.124Z,94487.00
2023-05-20T01:30:21.150Z,94485.00
2023-05-20T01:31:21.212Z,94487.00
2023-05-20T01:32:21.165Z,94483.00
2023-05-20T01:33:21.181Z,94483.00
2023-05-20T01:34:21.188Z,94485.00
2023-05-20T01:35:21.210Z,94485.00
2023-05-20T01:36:21.247Z,94487.00
2023-05-20T01:37:21.244Z,94485.00
2023-05-20T01:38:21.280Z,94483.00
2023-05-20T01:39:21.280Z,94481.00
2023-05-20T01:40:21.310Z,94481.00
2023-05-20T01:41:21.309Z,94483.00
2023-05-20T01:42:21.370Z,94479.00
2023-05-20T01:43:21.341Z,94481.00
2023-05-20T01:44:21.371Z,94483.00
2023-05-20T01:45:21.384Z,94483.00
2023-05-20T01:46:21.438Z,94485.00
2023-05-20T01:47:21.435Z,94485.00
2023-05-20T01:48:21.442Z,94489.00
2023-05-20T01:49:21.470Z,94487.00
2023-05-20T01:50:21.472Z,94489.00
2023-05-20T01:51:21.510Z,94487.00
2023-05-20T01:52:21.518Z,94487.00
2023-05-20T01:53:21.531Z,94491.00
2023-05-20T01:54:21.570Z,94491.00
2023-05-20T01:55:21.597Z,94489.00
2023-05-20T01:56:21.591Z,94489.00
2023-05-20T01:57:21.622Z,94487.00
2023-05-20T01:58:21.631Z,94487.00
2023-05-20T01:59:21.661Z,94487.00
2023-05-20T02:00:21.664Z,94485.00
2023-05-20T02:01:21.790Z,94485.00
2023-05-20T02:02:21.775Z,94485.00
2023-05-20T02:03:21.779Z,94485.00
2023-05-20T02:04:21.761Z,94483.00
2023-05-20T02:05:21.794Z,94485.00
2023-05-20T02:06:21.799Z,94483.00
2023-05-20T02:07:21.823Z,94481.00
2023-05-20T02:08:21.833Z,94481.00
2023-05-20T02:09:21.856Z,94483.00
2023-05-20T02:10:21.876Z,94487.00
2023-05-20T02:11:21.913Z,94487.00
2023-05-20T02:12:21.940Z,94487.00
2023-05-20T02:13:21.949Z,94487.00
2023-05-20T02:14:21.982Z,94487.00
2023-05-20T02:15:22.020Z,94487.00
2023-05-20T02:16:22.047Z,94487.00
2023-05-20T02:17:22.048Z,94487.00
2023-05-20T02:18:22.053Z,94487.00
2023-05-20T02:19:22.114Z,94489.00
2023-05-20T02:20:22.101Z,94489.00
2023-05-20T02:21:22.112Z,94489.00
2023-05-20T02:22:22.124Z,94487.00
2023-05-20T02:23:22.160Z,94485.00
2023-05-20T02:24:22.186Z,94483.00
2023-05-20T02:25:22.194Z,94483.00
2023-05-20T02:26:22.224Z,94483.00
2023-05-20T02:27:22.343Z,94483.00
2023-05-20T02:28:22.286Z,94481.00
2023-05-20T02:29:22.295Z,94479.00
2023-05-20T02:30:22.330Z,94479.00
2023-05-20T02:31:22.357Z,94477.00
2023-05-20T02:32:22.363Z,94479.00
2023-05-20T02:33:22.414Z,94479.00
2023-05-20T02:34:22.490Z,94477.00
2023-05-20T02:35:22.430Z,94477.00
2023-05-20T02:36:22.470Z,94477.00
2023-05-20T02:37:22.475Z,94479.00
2023-05-20T02:38:22.500Z,94479.00
2023-05-20T02:39:22.515Z,94477.00
2023-05-20T02:40:22.553Z,94477.00
2023-05-20T02:41:22.564Z,94477.00
2023-05-20T02:42:22.578Z,94475.00
2023-05-20T02:43:22.605Z,94477.00
2023-05-20T02:44:22.628Z,94477.00
2023-05-20T02:45:22.660Z,94475.00
2023-05-20T02:46:22.707Z,94473.00
2023-05-20T02:47:22.726Z,94471.00
2023-05-20T02:48:22.740Z,94473.00
2023-05-20T02:49:22.756Z,94473.00
2023-05-20T02:50:22.782Z,94471.00
2023-05-20T02:51:22.825Z,94473.00
2023-05-20T02:52:22.818Z,94471.00
2023-05-20T02:53:22.851Z,94473.00
2023-05-20T02:55:09.013Z,94475.00
2023-05-20T02:56:08.996Z,94473.00
2023-05-20T02:57:09.002Z,94479.00
2023-05-20T02:58:08.975Z,94477.00
2023-05-20T02:59:08.980Z,94473.00
2023-05-20T03:00:08.971Z,94477.00
2023-05-20T03:01:09.036Z,94475.00
2023-05-20T03:02:09.029Z,94475.00
2023-05-20T03:03:08.992Z,94477.00
2023-05-20T03:04:08.983Z,94475.00
2023-05-20T03:05:08.947Z,94475.00
2023-05-20T03:06:08.938Z,94475.00
2023-05-20T03:07:08.969Z,94475.00
2023-05-20T03:08:08.945Z,94473.00
2023-05-20T03:09:08.934Z,94471.00
2023-05-20T03:10:08.910Z,94473.00
2023-05-20T03:11:08.906Z,94475.00
2023-05-20T03:12:08.913Z,94475.00
2023-05-20T03:13:08.908Z,94475.00
2023-05-20T03:14:08.895Z,94475.00
2023-05-20T03:15:08.889Z,94473.00
2023-05-20T03:16:08.925Z,94477.00
2023-05-20T03:17:08.859Z,94475.00
2023-05-20T03:18:08.868Z,94475.00
2023-05-20T03:19:08.876Z,94475.00
2023-05-20T03:20:08.852Z,94475.00
2023-05-20T03:21:08.859Z,94477.00
2023-05-20T03:22:08.846Z,94477.00
2023-05-20T03:23:08.830Z,94475.00
2023-05-20T03:24:08.859Z,94475.00
2023-05-20T03:25:08.822Z,94473.00
2023-05-20T03:26:08.820Z,94469.00
2023-05-20T03:27:08.809Z,94467.00
2023-05-20T03:28:08.806Z,94467.00
2023-05-20T03:29:08.807Z,94463.00
2023-05-20T03:30:08.800Z,94463.00
2023-05-20T03:31:08.838Z,94465.00
2023-05-20T03:32:10.135Z,94459.00
2023-05-20T03:33:08.818Z,94457.00
2023-05-20T03:34:08.785Z,94457.00
2023-05-20T03:35:08.755Z,94455.00
2023-05-20T03:36:08.790Z,94453.00
2023-05-20T03:37:08.767Z,94453.00
2023-05-20T03:38:08.788Z,94451.00
2023-05-20T03:39:08.741Z,94453.00
2023-05-20T03:40:08.733Z,94453.00
2023-05-20T03:41:08.737Z,94453.00
2023-05-20T03:42:08.720Z,94449.00
2023-05-20T03:43:08.707Z,94449.00
2023-05-20T03:44:08.721Z,94449.00
2023-05-20T03:45:08.720Z,94445.00
2023-05-20T03:46:08.759Z,94449.00
2023-05-20T03:47:08.746Z,94451.00
2023-05-20T03:48:08.825Z,94451.00
2023-05-20T03:49:08.816Z,94451.00
2023-05-20T03:50:08.833Z,94453.00
2023-05-20T03:51:08.847Z,94451.00
2023-05-20T03:52:08.854Z,94447.00
2023-05-20T03:53:08.875Z,94447.00
2023-05-20T03:54:08.936Z,94445.00
2023-05-20T03:55:08.958Z,94445.00
2023-05-20T03:56:08.934Z,94445.00
2023-05-20T03:57:08.954Z,94447.00
2023-05-20T03:58:08.992Z,94445.00
2023-05-20T03:59:09.001Z,94444.00
2023-05-20T04:00:09.029Z,94445.00
2023-05-20T04:01:09.034Z,94445.00
2023-05-20T04:02:09.111Z,94444.00
2023-05-20T04:03:09.211Z,94444.00
2023-05-20T04:04:09.156Z,94445.00
2023-05-20T04:05:09.122Z,94445.00
2023-05-20T04:06:09.136Z,94445.00
2023-05-20T04:07:09.168Z,94445.00
2023-05-20T04:08:09.187Z,94445.00
2023-05-20T04:09:09.212Z,94447.00
2023-05-20T04:10:09.231Z,94447.00
2023-05-20T04:11:09.240Z,94451.00
2023-05-20T04:12:09.262Z,94449.00
2023-05-20T04:13:09.279Z,94449.00
2023-05-20T04:14:09.283Z,94451.00
2023-05-20T04:15:09.290Z,94451.00
2023-05-20T04:16:09.323Z,94451.00
2023-05-20T04:17:09.419Z,94453.00
2023-05-20T04:18:09.391Z,94453.00
2023-05-20T04:19:09.412Z,94457.00
2023-05-20T04:20:09.383Z,94457.00
2023-05-20T04:21:09.367Z,94457.00
2023-05-20T04:22:09.403Z,94457.00
2023-05-20T04:23:09.417Z,94457.00
2023-05-20T04:24:09.420Z,94457.00
2023-05-20T04:25:09.437Z,94459.00
2023-05-20T04:26:09.452Z,94457.00
2023-05-20T04:27:09.461Z,94457.00
2023-05-20T04:28:09.478Z,94455.00
2023-05-20T04:29:09.485Z,94457.00
2023-05-20T04:30:09.501Z,94453.00
2023-05-20T04:31:09.508Z,94455.00
2023-05-20T04:32:09.599Z,94453.00
2023-05-20T04:33:09.633Z,94453.00
2023-05-20T04:34:09.588Z,94451.00
2023-05-20T04:35:09.591Z,94451.00
2023-05-20T04:36:09.608Z,94455.00
2023-05-20T04:37:09.644Z,94455.00
2023-05-20T04:38:09.641Z,94459.00
2023-05-20T04:39:09.660Z,94457.00
2023-05-20T04:40:09.668Z,94461.00
2023-05-20T04:41:09.677Z,94461.00
2023-05-20T04:42:09.683Z,94459.00
2023-05-20T04:43:09.678Z,94467.00
2023-05-20T04:44:09.693Z,94467.00
2023-05-20T04:45:09.720Z,94465.00
2023-05-20T04:46:09.794Z,94467.00
2023-05-20T04:47:09.747Z,94467.00
2023-05-20T04:48:09.814Z,94467.00
2023-05-20T04:49:09.786Z,94465.00
2023-05-20T04:50:09.771Z,94467.00
2023-05-20T04:51:09.793Z,94467.00
2023-05-20T04:52:09.795Z,94463.00
2023-05-20T04:53:09.789Z,94467.00
2023-05-20T04:54:09.804Z,94465.00
2023-05-20T04:55:09.799Z,94465.00
2023-05-20T04:56:09.810Z,94469.00
2023-05-20T04:57:09.796Z,94469.00
2023-05-20T04:58:09.850Z,94467.00
2023-05-20T04:59:09.914Z,94465.00
2023-05-20T05:00:09.976Z,94471.00
2023-05-20T05:01:10.056Z,94467.00
2023-05-20T05:02:10.079Z,94469.00
2023-05-20T05:03:10.128Z,94467.00
2023-05-20T05:04:10.167Z,94467.00
2023-05-20T05:05:10.135Z,94471.00
2023-05-20T05:06:10.159Z,94469.00
2023-05-20T05:07:10.174Z,94469.00
2023-05-20T05:08:10.190Z,94471.00
2023-05-20T05:09:10.238Z,94467.00
2023-05-20T05:10:10.318Z,94471.00
2023-05-20T05:11:10.360Z,94467.00
2023-05-20T05:12:10.410Z,94469.00
2023-05-20T05:13:10.443Z,94469.00
2023-05-20T05:14:10.457Z,94469.00
2023-05-20T05:15:10.439Z,94467.00
2023-05-20T05:16:10.466Z,94465.00
2023-05-20T05:17:10.455Z,94461.00
2023-05-20T05:18:10.469Z,94461.00
2023-05-20T05:19:10.572Z,94465.00
2023-05-20T05:20:10.483Z,94463.00
2023-05-20T05:21:10.521Z,94463.00
2023-05-20T05:22:10.547Z,94461.00
2023-05-20T05:23:10.577Z,94457.00
2023-05-20T05:24:10.576Z,94457.00
2023-05-20T05:25:10.614Z,94459.00
2023-05-20T05:26:10.645Z,94459.00
2023-05-20T05:27:10.699Z,94459.00
2023-05-20T05:28:10.738Z,94457.00
2023-05-20T05:29:11.808Z,94459.00
2023-05-20T05:30:10.821Z,94457.00
2023-05-20T05:31:10.869Z,94455.00
2023-05-20T05:32:10.912Z,94455.00
2023-05-20T05:33:10.953Z,94455.00
2023-05-20T05:34:10.995Z,94451.00
2023-05-20T05:35:11.026Z,94451.00
2023-05-20T05:36:11.034Z,94449.00
2023-05-20T05:37:11.097Z,94449.00
2023-05-20T05:38:11.118Z,94451.00
2023-05-20T05:39:11.155Z,94453.00
2023-05-20T05:40:11.183Z,94455.00
2023-05-20T05:41:11.203Z,94453.00
2023-05-20T05:42:11.200Z,94453.00
2023-05-20T05:43:11.239Z,94451.00
2023-05-20T05:44:11.299Z,94453.00
2023-05-20T05:45:11.331Z,94453.00
2023-05-20T05:46:11.401Z,94449.00
2023-05-20T05:47:11.546Z,94449.00
2023-05-20T05:48:11.641Z,94453.00
2023-05-20T05:49:11.544Z,94455.00
2023-05-20T05:50:11.568Z,94451.00
2023-05-20T05:51:11.584Z,94449.00
2023-05-20T05:52:11.582Z,94451.00
2023-05-20T05:53:11.598Z,94449.00
2023-05-20T05:54:11.652Z,94447.00
2023-05-20T05:55:11.734Z,94449.00
2023-05-20T05:56:11.758Z,94451.00
2023-05-20T05:57:11.796Z,94455.00
2023-05-20T05:58:11.812Z,94459.00
2023-05-20T05:59:11.809Z,94463.00
2023-05-20T06:00:11.816Z,94459.00
2023-05-20T06:01:11.886Z,94459.00
2023-05-20T06:02:11.908Z,94455.00
2023-05-20T06:03:11.919Z,94457.00
2023-05-20T06:04:11.895Z,94457.00
2023-05-20T06:05:11.864Z,94453.00
2023-05-20T06:06:11.913Z,94453.00
2023-05-20T06:07:11.936Z,94455.00
2023-05-20T06:08:11.983Z,94457.00
2023-05-20T06:09:12.002Z,94455.00
2023-05-20T06:10:12.049Z,94455.00
2023-05-20T06:11:12.074Z,94457.00
2023-05-20T06:12:13.886Z,94457.00
2023-05-20T06:13:12.121Z,94461.00
2023-05-20T06:14:12.171Z,94457.00
2023-05-20T06:15:12.173Z,94455.00
2023-05-20T06:16:12.213Z,94455.00
2023-05-20T06:17:12.207Z,94455.00
2023-05-20T06:18:12.223Z,94453.00
2023-05-20T06:19:12.307Z,94455.00
2023-05-20T06:20:12.310Z,94459.00
2023-05-20T06:21:12.311Z,94455.00
2023-05-20T06:22:12.346Z,94461.00
2023-05-20T06:23:12.365Z,94461.00
2023-05-20T06:24:12.413Z,94461.00
2023-05-20T06:25:12.472Z,94461.00
2023-05-20T06:26:12.524Z,94459.00
2023-05-20T06:27:12.599Z,94455.00
2023-05-20T06:28:12.611Z,94457.00
2023-05-20T06:29:12.590Z,94457.00
2023-05-20T06:30:12.587Z,94457.00
2023-05-20T06:31:12.722Z,94457.00
2023-05-20T06:32:12.639Z,94457.00
2023-05-20T06:33:12.692Z,94455.00
2023-05-20T06:34:12.718Z,94453.00
2023-05-20T06:35:12.780Z,94451.00
2023-05-20T06:36:12.802Z,94451.00
2023-05-20T06:37:12.853Z,94451.00
2023-05-20T06:38:12.975Z,94453.00
2023-05-20T06:39:12.975Z,94451.00
2023-05-20T06:40:13.035Z,94449.00
2023-05-20T06:41:13.097Z,94451.00
2023-05-20T06:42:13.136Z,94447.00
2023-05-20T06:43:13.216Z,94449.00
2023-05-20T06:44:13.191Z,94449.00
2023-05-20T06:45:13.214Z,94447.00
2023-05-20T06:46:13.270Z,94445.00
2023-05-20T06:47:13.266Z,94447.00
2023-05-20T06:48:13.321Z,94445.00
2023-05-20T06:49:13.321Z,94444.00
2023-05-20T06:50:13.337Z,94442.00
2023-05-20T06:51:13.334Z,94444.00
2023-05-20T06:52:13.350Z,94442.00
2023-05-20T06:53:13.357Z,94440.00
2023-05-20T06:54:13.364Z,94436.00
2023-05-20T06:55:13.358Z,94436.00
2023-05-20T06:56:13.348Z,94432.00
2023-05-20T06:57:13.351Z,94432.00
2023-05-20T06:58:13.366Z,94434.00
2023-05-20T06:59:13.367Z,94432.00
2023-05-20T07:00:13.371Z,94430.00
2023-05-20T07:01:13.855Z,94426.00
2023-05-20T07:02:13.392Z,94426.00
2023-05-20T07:03:13.395Z,94424.00
2023-05-20T07:04:13.456Z,94424.00
2023-05-20T07:05:13.394Z,94420.00
2023-05-20T07:06:13.399Z,94422.00
2023-05-20T07:07:14.457Z,94420.00
2023-05-20T07:08:13.396Z,94420.00
2023-05-20T07:09:13.417Z,94416.00
2023-05-20T07:10:13.413Z,94418.00
2023-05-20T07:11:13.404Z,94414.00
2023-05-20T07:12:13.421Z,94410.00
2023-05-20T07:13:13.441Z,94406.00
2023-05-20T07:14:13.453Z,94404.00
2023-05-20T07:15:13.439Z,94402.00
2023-05-20T07:16:13.465Z,94398.00
2023-05-20T07:17:13.448Z,94398.00
2023-05-20T07:18:13.530Z,94400.00
2023-05-20T07:19:13.479Z,94398.00
2023-05-20T07:20:13.458Z,94398.00
2023-05-20T07:21:13.436Z,94395.00
2023-05-20T07:22:13.433Z,94397.00
2023-05-20T07:23:15.558Z,94395.00
2023-05-20T07:24:13.451Z,94393.00
2023-05-20T07:25:13.441Z,94393.00
2023-05-20T07:26:13.442Z,94391.00
2023-05-20T07:27:13.457Z,94391.00
2023-05-20T07:28:13.476Z,94391.00
2023-05-20T07:29:13.490Z,94391.00
2023-05-20T07:30:13.514Z,94381.00
2023-05-20T07:31:13.644Z,94379.00
2023-05-20T07:32:13.601Z,94379.00
2023-05-20T07:33:13.644Z,94375.00
2023-05-20T07:34:13.699Z,94371.00
2023-05-20T07:35:13.716Z,94369.00
2023-05-20T07:36:13.752Z,94363.00
2023-05-20T07:37:13.789Z,94365.00
2023-05-20T07:38:13.794Z,94363.00
2023-05-20T07:39:15.207Z,94361.00
2023-05-20T07:40:13.875Z,94359.00
2023-05-20T07:41:13.898Z,94359.00
2023-05-20T07:42:13.919Z,94357.00
2023-05-20T07:43:13.973Z,94353.00
2023-05-20T07:44:13.995Z,94352.00
2023-05-20T07:45:14.048Z,94353.00
2023-05-20T07:46:14.103Z,94353.00
2023-05-20T07:47:14.046Z,94353.00
2023-05-20T07:48:14.066Z,94353.00
2023-05-20T07:49:14.084Z,94353.00
2023-05-20T07:50:14.123Z,94355.00
2023-05-20T07:51:14.149Z,94352.00
2023-05-20T07:52:14.167Z,94350.00
2023-05-20T07:53:14.189Z,94348.00
2023-05-20T07:54:14.231Z,94348.00
2023-05-20T07:55:14.252Z,94350.00
2023-05-20T07:56:14.289Z,94353.00
2023-05-20T07:57:14.293Z,94352.00
2023-05-20T07:58:14.317Z,94353.00
2023-05-20T07:59:14.332Z,94355.00
2023-05-20T08:00:14.369Z,94353.00
2023-05-20T08:01:14.352Z,94352.00
2023-05-20T08:02:14.397Z,94352.00
2023-05-20T08:03:14.534Z,94350.00
2023-05-20T08:04:14.428Z,94352.00
2023-05-20T08:05:14.362Z,94352.00
2023-05-20T08:06:14.348Z,94352.00
2023-05-20T08:07:14.353Z,94352.00
2023-05-20T08:08:14.363Z,94352.00
2023-05-20T08:09:14.381Z,94352.00
2023-05-20T08:10:14.358Z,94352.00
2023-05-20T08:11:14.354Z,94352.00
2023-05-20T08:12:14.346Z,94348.00
2023-05-20T08:13:14.369Z,94348.00
2023-05-20T08:14:14.378Z,94346.00
2023-05-20T08:15:14.345Z,94340.00
2023-05-20T08:16:14.406Z,94342.00
2023-05-20T08:17:14.435Z,94336.00
2023-05-20T08:18:14.397Z,94340.00
2023-05-20T08:19:14.420Z,94334.00
2023-05-20T08:20:14.357Z,94330.00
2023-05-20T08:21:14.355Z,94330.00
2023-05-20T08:22:14.360Z,94328.00
2023-05-20T08:23:14.364Z,94328.00
2023-05-20T08:24:14.363Z,94328.00
2023-05-20T08:25:14.346Z,94326.00
2023-05-20T08:26:14.368Z,94332.00
2023-05-20T08:27:14.377Z,94330.00
2023-05-20T08:28:14.383Z,94330.00
2023-05-20T08:29:14.350Z,94330.00
2023-05-20T08:30:14.351Z,94328.00
2023-05-20T08:31:14.441Z,94328.00
2023-05-20T08:32:14.369Z,94326.00
2023-05-20T08:33:14.352Z,94324.00
2023-05-20T08:34:14.370Z,94324.00
2023-05-20T08:35:14.361Z,94324.00
2023-05-20T08:36:14.371Z,94322.00
2023-05-20T08:37:14.380Z,94320.00
2023-05-20T08:38:14.364Z,94318.00
2023-05-20T08:39:14.369Z,94318.00
2023-05-20T08:40:14.363Z,94318.00
2023-05-20T08:41:14.361Z,94318.00
2023-05-20T08:42:14.377Z,94318.00
2023-05-20T08:43:14.378Z,94314.00
2023-05-20T08:44:14.394Z,94310.00
2023-05-20T08:45:14.385Z,94310.00
2023-05-20T08:46:15.171Z,94306.00
2023-05-20T08:47:14.398Z,94308.00
2023-05-20T08:48:14.440Z,94306.00
2023-05-20T08:49:14.411Z,94305.00
2023-05-20T08:50:14.390Z,94303.00
2023-05-20T08:51:14.423Z,94303.00
2023-05-20T08:52:14.390Z,94301.00
2023-05-20T08:53:14.397Z,94301.00
2023-05-20T08:54:14.414Z,94297.00
2023-05-20T08:55:14.402Z,94297.00
2023-05-20T08:56:14.425Z,94297.00
2023-05-20T08:57:14.410Z,94295.00
2023-05-20T08:58:14.411Z,94297.00
2023-05-20T08:59:14.430Z,94293.00
2023-05-20T09:00:14.438Z,94291.00
2023-05-20T09:01:14.511Z,94295.00
2023-05-20T09:02:14.481Z,94291.00
2023-05-20T09:03:14.586Z,94289.00
2023-05-20T09:04:14.453Z,94289.00
2023-05-20T09:05:14.551Z,94287.00
2023-05-20T09:06:14.464Z,94283.00
2023-05-20T09:07:14.476Z,94283.00
2023-05-20T09:08:14.465Z,94281.00
2023-05-20T09:09:14.478Z,94283.00
2023-05-20T09:10:14.505Z,94281.00
2023-05-20T09:11:14.491Z,94281.00
2023-05-20T09:12:14.493Z,94283.00
2023-05-20T09:13:14.531Z,94283.00
2023-05-20T09:14:14.543Z,94281.00
2023-05-20T09:15:14.538Z,94283.00
2023-05-20T09:16:14.567Z,94281.00
2023-05-20T09:17:14.557Z,94283.00
2023-05-20T09:18:14.541Z,94281.00
2023-05-20T09:19:14.594Z,94281.00
2023-05-20T09:20:14.575Z,94279.00
2023-05-20T09:21:14.563Z,94279.00
2023-05-20T09:22:14.576Z,94277.00
2023-05-20T09:23:14.586Z,94281.00
2023-05-20T09:24:14.567Z,94279.00
2023-05-20T09:25:14.593Z,94277.00
2023-05-20T09:26:14.616Z,94277.00
2023-05-20T09:27:14.622Z,94277.00
2023-05-20T09:28:14.631Z,94277.00
2023-05-20T09:29:14.631Z,94273.00
2023-05-20T09:30:14.656Z,94271.00
2023-05-20T09:31:14.723Z,94269.00
2023-05-20T09:32:14.745Z,94269.00
2023-05-20T09:33:14.670Z,94267.00
2023-05-20T09:34:14.705Z,94267.00
2023-05-20T09:35:14.716Z,94267.00
2023-05-20T09:36:16.615Z,94267.00
2023-05-20T09:37:14.731Z,94261.00
2023-05-20T09:38:14.721Z,94263.00
2023-05-20T09:39:14.758Z,94261.00
2023-05-20T09:40:14.759Z,94256.00
2023-05-20T09:41:14.781Z,94254.00
2023-05-20T09:42:14.798Z,94256.00
2023-05-20T09:43:14.808Z,94258.00
2023-05-20T09:44:14.810Z,94261.00
2023-05-20T09:45:14.825Z,94256.00
2023-05-20T09:46:14.881Z,94258.00
2023-05-20T09:47:14.873Z,94256.00
2023-05-20T09:48:14.939Z,94252.00
2023-05-20T09:49:14.897Z,94250.00
2023-05-20T09:50:14.896Z,94248.00
2023-05-20T09:51:14.922Z,94248.00
2023-05-20T09:52:14.920Z,94242.00
2023-05-20T09:53:14.957Z,94244.00
2023-05-20T09:54:14.971Z,94240.00
2023-05-20T09:55:15.004Z,94238.00
2023-05-20T09:56:14.994Z,94240.00
2023-05-20T09:57:15.035Z,94230.00
2023-05-20T09:58:16.373Z,94228.00
2023-05-20T09:59:15.065Z,94226.00
2023-05-20T10:00:15.093Z,94220.00
2023-05-20T10:01:15.158Z,94218.00
2023-05-20T10:02:15.138Z,94216.00
2023-05-20T10:03:15.230Z,94212.00
2023-05-20T10:04:15.177Z,94209.00
2023-05-20T10:05:15.181Z,94211.00
2023-05-20T10:06:15.206Z,94209.00
2023-05-20T10:07:15.224Z,94205.00
2023-05-20T10:08:15.229Z,94201.00
2023-05-20T10:09:15.261Z,94199.00
2023-05-20T10:10:15.279Z,94197.00
2023-05-20T10:11:15.300Z,94197.00
2023-05-20T10:12:15.301Z,94195.00
2023-05-20T10:13:15.315Z,94191.00
2023-05-20T10:14:15.356Z,94191.00
2023-05-20T10:15:15.341Z,94191.00
2023-05-20T10:16:15.391Z,94189.00
2023-05-20T10:17:15.399Z,94189.00
2023-05-20T10:18:15.400Z,94187.00
2023-05-20T10:19:15.467Z,94185.00
2023-05-20T10:20:15.438Z,94183.00
2023-05-20T10:21:15.459Z,94183.00
2023-05-20T10:22:15.468Z,94183.00
2023-05-20T10:23:15.500Z,94181.00
2023-05-20T10:24:15.527Z,94181.00
2023-05-20T10:25:15.551Z,94179.00
2023-05-20T10:26:15.557Z,94179.00
2023-05-20T10:27:15.684Z,94181.00
2023-05-20T10:28:15.590Z,94173.00
2023-05-20T10:29:15.608Z,94175.00
2023-05-20T10:30:15.616Z,94167.00
2023-05-20T10:31:15.630Z,94167.00
2023-05-20T10:32:15.679Z,94169.00
2023-05-20T10:33:15.753Z,94171.00
2023-05-20T10:34:15.718Z,94169.00
2023-05-20T10:35:15.735Z,94163.00
2023-05-20T10:36:15.753Z,94171.00
2023-05-20T10:37:15.760Z,94167.00
2023-05-20T10:38:15.802Z,94163.00
2023-05-20T10:39:15.817Z,94165.00
2023-05-20T10:40:15.996Z,94159.00
2023-05-20T10:41:15.836Z,94157.00
2023-05-20T10:42:15.860Z,94154.00
2023-05-20T10:43:15.874Z,94152.00
2023-05-20T10:44:15.904Z,94152.00
2023-05-20T10:45:15.929Z,94152.00
2023-05-20T10:46:26.317Z,94150.00
2023-05-20T10:47:25.485Z,94146.00
2023-05-20T10:48:17.059Z,94148.00
2023-05-20T10:49:16.009Z,94144.00
2023-05-20T10:50:15.927Z,94146.00
2023-05-20T10:51:15.914Z,94144.00
2023-05-20T10:52:15.902Z,94146.00
2023-05-20T10:53:29.293Z,94148.00
2023-05-20T10:54:16.912Z,94144.00
2023-05-20T10:55:15.893Z,94148.00
2023-05-20T10:56:15.871Z,94144.00
2023-05-20T10:57:15.868Z,94146.00
2023-05-20T10:58:15.858Z,94144.00
2023-05-20T10:59:15.862Z,94144.00
2023-05-20T11:00:15.842Z,94146.00
2023-05-20T11:01:15.884Z,94144.00
2023-05-20T11:02:15.842Z,94144.00
2023-05-20T11:03:15.951Z,94140.00
2023-05-20T11:04:15.943Z,94142.00
2023-05-20T11:05:15.826Z,94140.00
2023-05-20T11:06:16.882Z,94140.00
2023-05-20T11:07:15.822Z,94136.00
2023-05-20T11:08:27.725Z,94138.00
2023-05-20T11:09:16.836Z,94144.00
2023-05-20T11:10:15.842Z,94140.00
2023-05-20T11:11:15.832Z,94140.00
2023-05-20T11:12:17.333Z,94142.00
2023-05-20T11:13:15.874Z,94136.00
2023-05-20T11:14:15.819Z,94138.00
2023-05-20T11:15:15.850Z,94140.00
2023-05-20T11:16:15.820Z,94138.00
2023-05-20T11:17:15.796Z,94140.00
2023-05-20T11:18:17.837Z,94138.00
2023-05-20T11:19:15.819Z,94134.00
2023-05-20T11:20:15.821Z,94138.00
2023-05-20T11:21:15.762Z,94138.00
2023-05-20T11:22:15.770Z,94136.00
2023-05-20T11:23:15.948Z,94136.00
2023-05-20T11:24:15.752Z,94134.00
2023-05-20T11:25:15.725Z,94138.00
2023-05-20T11:26:15.739Z,94134.00
2023-05-20T11:27:15.729Z,94134.00
2023-05-20T11:28:15.711Z,94126.00
2023-05-20T11:29:15.706Z,94138.00
2023-05-20T11:30:15.693Z,94136.00
2023-05-20T11:31:15.898Z,94126.00
2023-05-20T11:32:15.765Z,94134.00
2023-05-20T11:33:15.730Z,94124.00
2023-05-20T11:34:15.692Z,94120.00
2023-05-20T11:35:15.669Z,94124.00
2023-05-20T11:36:26.811Z,94122.00
2023-05-20T11:37:16.654Z,94122.00
2023-05-20T11:38:15.755Z,94122.00
2023-05-20T11:39:15.659Z,94122.00
2023-05-20T11:40:15.654Z,94126.00
2023-05-20T11:41:15.628Z,94124.00
2023-05-20T11:42:15.633Z,94126.00
2023-05-20T11:43:15.617Z,94126.00
2023-05-20T11:44:15.605Z,94134.00
2023-05-20T11:45:15.596Z,94124.00